Time;durP1;ratioP1;P1;durP2;ratioP2;P2;SDS_P1;SDS_P2;PMS_P1;PMS_P2;Temp;Humidity;BMP_temperature;BMP_pressure;BME280_temperature;BME280_humidity;BME280_pressure;Samples;Min_cycle;Max_cycle;Signal;HPM_P1;HPM_P2
2021/11/01 06:54:41;;;;;;;34.94;18.56;;;;;;;5.54;81.96;100352.22;363257;146;857338;-58
2021/11/01 06:58:27;;;;;;;;;;;;;;;6.43;80.05;100347.78;365932;146;858865;-59
2021/11/01 07:15:12;;;;;;;37.01;19.76;;;;;;;9.05;65.72;100349.63;356956;149;859303;-58
2021/11/01 07:16:16;;;;;;;40.55;22.20;;;;;;;9.03;66.09;100350.46;356822;148;860520;-60
2021/11/01 07:18:32;;;;;;;40.05;23.28;;;;;;;;;;355743;149;857726;-58
2021/11/01 07:29:48;;;;;;;54.34;29.76;;;;;;;;;;358280;147;858752;-58
2021/11/01 07:38:51;;;;;;;47.95;27.21;;;;;;;;;;362978;148;857312;-58
2021/11/01 08:20:48;;;;;;;49.79;29.17;;;;;;;;;;358044;149;857972;-61
2021/11/01 08:22:59;;;;;;;52.64;29.90;;;;;;;;;;352820;150;858959;-60
2021/11/01 08:24:21;;;;;;;53.34;31.09;;;;;;;;;;349985;151;858866;-60
2021/11/01 08:34:09;;;;;;;46.88;27.63;;;;;;;;;;348389;151;865127;-59
2021/11/01 08:43:23;;;;;;;50.16;25.47;;;;;;;;;;322479;164;858822;-59
2021/11/01 08:48:28;;;;;;;48.91;27.74;;;;;;;;;;321381;165;858620;-58
2021/11/01 08:50:08;;;;;;;48.25;28.04;;;;;;;;;;321930;158;859661;-58
2021/11/01 08:50:43;;;;;;;45.68;27.46;;;;;;;;;;324519;158;858418;-57
2021/11/01 09:02:18;;;;;;;35.11;19.49;;;;;;;;;;358280;148;857328;-59
2021/11/01 09:04:21;;;;;;;45.09;26.34;;;;;;;;;;338698;156;867136;-58
2021/11/01 09:21:11;;;;;;;41.57;21.21;;;;;;;;;;358647;149;856230;-57
2021/11/01 09:21:52;;;;;;;43.59;23.60;;;;;;;;;;352889;148;856238;-59
2021/11/01 09:24:32;;;;;;;30.67;17.00;;;;;;;;;;358512;149;856843;-58
2021/11/01 09:26:32;;;;;;;44.35;23.85;;;;;;;;;;358528;148;856441;-59
2021/11/01 09:27:32;;;;;;;42.12;23.74;;;;;;;;;;356932;148;864927;-59
2021/11/01 09:36:27;;;;;;;39.41;19.71;;;;;;;;;;357779;147;856469;-58
2021/11/01 09:40:54;;;;;;;24.13;14.91;;;;;;;;;;358542;147;859179;-58
2021/11/01 09:41:03;;;;;;;41.64;23.41;;;;;;;;;;354980;147;863871;-58
2021/11/01 09:42:01;;;;;;;41.71;23.48;;;;;;;;;;356557;148;857412;-58
2021/11/01 09:43:04;;;;;;;31.79;18.79;;;;;;;;;;358302;148;858686;-58
2021/11/01 09:44:10;;;;;;;42.99;20.97;;;;;;;;;;357008;148;865097;-59
2021/11/01 09:45:09;;;;;;;42.11;23.99;;;;;;;;;;351224;152;857482;-59
2021/11/01 09:46:11;;;;;;;50.84;23.64;;;;;;;;;;360575;148;858768;-59
2021/11/01 09:47:12;;;;;;;44.17;23.99;;;;;;;;;;357525;148;861066;-58
2021/11/01 09:48:15;;;;;;;44.86;22.96;;;;;;;;;;358595;148;865116;-59
2021/11/01 09:49:17;;;;;;;53.06;24.35;;;;;;;;;;357907;149;857392;-57
2021/11/01 09:50:20;;;;;;;59.00;25.11;;;;;;;;;;358702;148;856259;-58
2021/11/01 09:51:22;;;;;;;52.57;24.48;;;;;;;;;;358380;147;861412;-58
2021/11/01 09:52:24;;;;;;;42.04;19.56;;;;;;;;;;357901;150;859024;-57
2021/11/01 09:53:29;;;;;;;57.93;26.89;;;;;;;;;;359098;148;859073;-58
2021/11/01 09:54:30;;;;;;;62.42;25.29;;;;;;;;;;358257;148;864866;-58
2021/11/01 09:55:58;;;;;;;49.63;22.89;;;;;;;;;;358889;148;858426;-57
2021/11/01 09:57:01;;;;;;;39.99;17.29;;;;;;;;;;350545;152;858648;-59
2021/11/01 09:59:25;;;;;;;70.86;23.18;;;;;;;;;;351431;151;858400;-58
2021/11/01 10:00:27;;;;;;;46.39;21.07;;;;;;;;;;358031;148;857741;-57
2021/11/01 10:01:29;;;;;;;41.99;19.34;;;;;;;;;;350747;151;865922;-58
2021/11/01 10:02:31;;;;;;;38.25;18.27;;;;;;;;;;357856;147;857956;-58
2021/11/01 10:03:42;;;;;;;50.99;24.50;;;;;;;;;;358612;149;860022;-57
2021/11/01 10:04:44;;;;;;;41.63;21.14;;;;;;;;;;357453;148;859564;-59
2021/11/01 10:05:53;;;;;;;43.60;21.56;;;;;;;;;;358401;148;860201;-58
2021/11/01 10:07:22;;;;;;;39.56;21.66;;;;;;;;;;351515;153;858331;-58
2021/11/01 10:08:24;;;;;;;42.90;21.77;;;;;;;;;;355718;148;857435;-58
2021/11/01 10:09:30;;;;;;;54.39;22.69;;;;;;;;;;358439;148;858705;-59
2021/11/01 10:10:35;;;;;;;46.48;22.40;;;;;;;;;;358263;148;860005;-58
2021/11/01 10:11:39;;;;;;;44.48;23.46;;;;;;;;;;358285;149;858942;-59
2021/11/01 10:12:42;;;;;;;41.46;21.49;;;;;;;;;;358674;148;857272;-59
2021/11/01 10:13:45;;;;;;;40.05;23.18;;;;;;;;;;358786;148;859004;-58
2021/11/01 10:14:48;;;;;;;45.75;24.98;;;;;;;;;;357048;150;859048;-58
2021/11/01 10:17:35;;;;;;;43.65;22.88;;;;;;;;;;357601;147;860358;-57
2021/11/01 10:18:38;;;;;;;39.25;22.98;;;;;;;;;;358234;149;857663;-57
2021/11/01 10:19:41;;;;;;;36.00;23.84;;;;;;;;;;357297;149;858330;-57
2021/11/01 10:20:51;;;;;;;42.47;21.36;;;;;;;;;;351439;150;865472;-58
2021/11/01 10:21:53;;;;;;;36.48;22.54;;;;;;;;;;355649;148;858059;-58
2021/11/01 10:22:55;;;;;;;34.55;19.39;;;;;;;;;;358640;148;857431;-57
2021/11/01 10:23:57;;;;;;;36.51;19.21;;;;;;;;;;358809;147;857860;-58
2021/11/01 10:24:58;;;;;;;38.20;23.67;;;;;;;;;;350822;150;857473;-58
2021/11/01 10:26:07;;;;;;;45.62;24.31;;;;;;;;;;351754;151;857816;-59
2021/11/01 10:27:15;;;;;;;43.51;22.40;;;;;;;;;;358440;147;859963;-59
2021/11/01 10:28:18;;;;;;;29.23;17.34;;;;;;;;;;359211;148;857914;-57
2021/11/01 10:29:20;;;;;;;30.59;17.54;;;;;;;;;;356182;147;857467;-58
2021/11/01 10:30:27;;;;;;;48.86;26.75;;;;;;;;;;362022;147;857435;-59
2021/11/01 10:31:28;;;;;;;39.33;20.88;;;;;;;;;;351824;150;859776;-57
2021/11/01 10:32:37;;;;;;;34.69;18.30;;;;;;;;;;358854;147;858849;-55
2021/11/01 10:33:44;;;;;;;38.23;19.33;;;;;;;;;;352512;150;865054;-56
2021/11/01 10:34:42;;;;;;;39.91;21.69;;;;;;;;;;351349;150;859290;-56
2021/11/01 10:35:45;;;;;;;39.09;21.36;;;;;;;;;;359282;147;865466;-56
2021/11/01 10:36:48;;;;;;;31.45;17.01;;;;;;;;;;361727;147;859105;-57
2021/11/01 10:39:13;;;;;;;42.71;23.24;;;;;;;;;;359217;147;857319;-59
2021/11/01 10:40:17;;;;;;;39.32;19.89;;;;;;;;;;358788;147;856861;-59
2021/11/01 10:41:33;;;;;;;33.29;20.34;;;;;;;;;;358868;148;859699;-58
2021/11/01 10:42:31;;;;;;;38.19;21.08;;;;;;;;;;357547;147;865611;-60
2021/11/01 10:43:47;;;;;;;39.34;19.34;;;;;;;;;;357258;149;858012;-56
2021/11/01 10:46:17;;;;;;;37.58;22.74;;;;;;;;;;350151;152;857839;-59
2021/11/01 11:13:05;;;;;;;39.06;23.01;;;;;;;;;;357748;149;857836;-59
2021/11/01 11:14:05;;;;;;;36.77;22.49;;;;;;;;;;355268;149;864992;-59
2021/11/01 11:15:14;;;;;;;38.71;21.20;;;;;;;;;;357418;149;857364;-58
2021/11/01 11:16:09;;;;;;;34.59;19.25;;;;;;;;;;353400;149;857348;-59
2021/11/01 11:17:22;;;;;;;39.64;23.96;;;;;;;;;;357215;149;858994;-59
2021/11/01 11:18:46;;;;;;;35.98;18.75;;;;;;;;;;357976;148;857778;-59
2021/11/01 11:19:52;;;;;;;34.98;20.58;;;;;;;;;;353921;150;857831;-57
2021/11/01 11:23:52;;;;;;;38.09;21.63;;;;;;;;;;358533;147;860568;-57
2021/11/01 11:26:02;;;;;;;33.88;20.04;;;;;;;;;;356169;149;858166;-58
2021/11/01 11:26:56;;;;;;;35.62;21.12;;;;;;;;;;356309;148;857338;-58
2021/11/01 11:28:12;;;;;;;37.29;21.26;;;;;;;;;;358437;148;857413;-57
2021/11/01 11:31:54;;;;;;;34.16;20.83;;;;;;;;;;356013;148;860213;-58
2021/11/01 11:38:09;;;;;;;34.72;21.43;;;;;;;;;;355016;150;857425;-58
2021/11/01 11:48:31;;;;;;;34.29;19.89;;;;;;;;;;358170;147;865182;-59
2021/11/01 11:49:28;;;;;;;32.19;21.04;;;;;;;;;;351229;150;860380;-59
2021/11/01 11:50:30;;;;;;;35.01;20.79;;;;;;;;;;357664;148;859426;-58
2021/11/01 11:51:32;;;;;;;34.11;20.41;;;;;;;;;;359243;147;865088;-58
2021/11/01 11:52:35;;;;;;;34.49;20.00;;;;;;;;;;359291;148;865046;-58
2021/11/01 11:55:19;;;;;;;34.64;19.71;;;;;;;;;;352266;149;858800;-58
2021/11/01 11:56:29;;;;;;;31.35;19.52;;;;;;;;;;350696;150;857167;-58
2021/11/01 11:57:35;;;;;;;34.69;20.52;;;;;;;;;;351259;147;858776;-56
2021/11/01 11:58:43;;;;;;;31.93;20.94;;;;;;;;;;352476;147;858099;-57
2021/11/01 11:59:47;;;;;;;32.88;20.66;;;;;;;;;;348279;153;858446;-59
2021/11/01 12:00:49;;;;;;;34.14;20.54;;;;;;;;;;341503;155;859878;-59
2021/11/01 12:01:51;;;;;;;30.29;21.33;;;;;;;;;;345105;150;858130;-59
2021/11/01 12:02:53;;;;;;;19.99;15.05;;;;;;;;;;344232;153;867316;-57
2021/11/01 12:03:56;;;;;;;34.24;21.37;;;;;;;;;;344483;156;858714;-57
2021/11/01 12:05:10;;;;;;;33.91;20.20;;;;;;;;;;345375;150;859703;-57
2021/11/01 12:06:14;;;;;;;32.99;18.28;;;;;;;;;;336725;156;857463;-58
2021/11/01 12:07:16;;;;;;;34.32;20.70;;;;;;;;;;344893;153;858753;-57
2021/11/01 12:09:24;;;;;;;29.89;21.11;;;;;;;;;;345602;150;857859;-55
2021/11/01 12:11:52;;;;;;;;;;;;;;;;;;347292;153;864991;-55
2021/11/01 12:13:29;;;;;;;40.33;20.82;;;;;;;;;;345785;150;858593;-57
2021/11/01 12:17:23;;;;;;;36.48;21.70;;;;;;;;;;344734;153;858363;-55
2021/11/01 12:18:26;;;;;;;34.79;22.08;;;;;;;;;;345674;153;857399;-55
2021/11/01 12:19:27;;;;;;;35.95;21.51;;;;;;;;;;345415;150;861244;-59
2021/11/01 12:20:29;;;;;;;35.59;22.84;;;;;;;;;;344871;153;857695;-56
2021/11/01 12:21:32;;;;;;;33.87;21.59;;;;;;;;;;344481;153;864704;-56
2021/11/01 12:22:35;;;;;;;32.77;21.75;;;;;;;;;;344325;153;857758;-55
2021/11/01 12:23:40;;;;;;;40.66;22.52;;;;;;;;;;342408;153;859660;-58
2021/11/01 12:24:47;;;;;;;33.45;21.31;;;;;;;;;;342407;153;858840;-56
2021/11/01 12:25:49;;;;;;;35.97;22.68;;;;;;;;;;345827;153;857757;-55
2021/11/01 12:27:01;;;;;;;35.82;22.17;;;;;;;;;;345996;150;859152;-55
2021/11/01 12:28:04;;;;;;;36.77;22.40;;;;;;;;;;345041;152;858511;-56
2021/11/01 12:29:07;;;;;;;34.53;22.18;;;;;;;;;;344462;153;857362;-55
2021/11/01 12:30:12;;;;;;;34.69;20.25;;;;;;;;;;344592;150;864863;-55
2021/11/01 12:31:13;;;;;;;38.26;21.01;;;;;;;;;;345230;152;865844;-56
2021/11/01 12:32:15;;;;;;;32.16;19.57;;;;;;;;;;345938;153;857800;-57
2021/11/01 12:33:18;;;;;;;32.75;20.75;;;;;;;;;;344530;153;865825;-61
2021/11/01 12:34:22;;;;;;;30.17;20.56;;;;;;;;;;345061;150;865747;-62
2021/11/01 12:35:30;;;;;;;35.22;21.51;;;;;;;;;;342138;156;857872;-58
2021/11/01 12:36:35;;;;;;;31.85;21.14;;;;;;;;;;341021;153;866531;-57
2021/11/01 12:37:34;;;;;;;32.03;20.49;;;;;;;;;;343849;153;858989;-56
2021/11/01 12:38:48;;;;;;;33.84;21.48;;;;;;;;;;345544;150;857248;-56
2021/11/01 12:39:46;;;;;;;40.04;21.14;;;;;;;;;;343544;153;859492;-56
2021/11/01 12:40:58;;;;;;;36.12;21.62;;;;;;;;;;344026;153;858098;-56
2021/11/01 12:45:06;;;;;;;36.12;20.37;;;;;;;;;;344487;153;859137;-57
2021/11/01 12:47:17;;;;;;;33.17;20.53;;;;;;;;;;344627;153;857654;-56
2021/11/01 12:49:44;;;;;;;31.93;20.56;;;;;;;;;;345158;150;858734;-57
2021/11/01 12:57:19;;;;;;;44.92;23.17;;;;;;;;;;346293;153;859863;-56
2021/11/01 12:58:19;;;;;;;35.87;21.78;;;;;;;;;;344304;153;866773;-56
2021/11/01 12:59:21;;;;;;;37.94;22.50;;;;;;;;;;344775;150;857222;-56
2021/11/01 13:00:23;;;;;;;36.15;20.89;;;;;;;;;;344790;150;864821;-56
2021/11/01 13:01:27;;;;;;;34.11;22.16;;;;;;;;;;343955;154;858275;-56
2021/11/01 13:02:30;;;;;;;37.76;22.62;;;;;;;;;;344133;153;865916;-56
2021/11/01 13:03:32;;;;;;;34.78;22.02;;;;;;;;;;344683;153;864844;-56
2021/11/01 13:04:39;;;;;;;40.96;23.81;;;;;;;;;;345528;152;857779;-55
2021/11/01 13:05:45;;;;;;;34.93;21.51;;;;;;;;;;344179;153;859286;-56
2021/11/01 13:07:03;;;;;;;39.11;22.45;;;;;;;;;;344451;150;859299;-56
2021/11/01 13:08:08;;;;;;;36.38;21.17;;;;;;;;;;345241;153;857214;-56
2021/11/01 13:09:12;;;;;;;34.69;20.64;;;;;;;;;;343173;153;857436;-56
2021/11/01 13:11:38;;;;;;;32.46;20.97;;;;;;;;;;329389;161;857313;-55
2021/11/01 13:14:04;;;;;;;31.70;20.71;;;;;;;;;;344032;150;857718;-56
2021/11/01 13:15:03;;;;;;;38.98;21.23;;;;;;;;;;342868;150;857278;-56
2021/11/01 13:18:41;;;;;;;35.95;20.63;;;;;;;;;;343203;153;858940;-56
2021/11/01 13:19:44;;;;;;;37.30;21.34;;;;;;;;;;345190;153;857677;-56
2021/11/01 13:20:51;;;;;;;34.75;20.99;;;;;;;;;;339186;156;864861;-56
2021/11/01 13:22:03;;;;;;;35.05;21.56;;;;;;;;;;333962;155;858996;-55
2021/11/01 13:23:02;;;;;;;36.38;21.09;;;;;;;;;;343869;153;859602;-55
2021/11/01 13:24:08;;;;;;;34.75;20.97;;;;;;;;;;344338;153;857908;-56
2021/11/01 13:25:23;;;;;;;35.28;19.99;;;;;;;;;;344881;150;857669;-57
2021/11/01 13:29:08;;;;;;;30.85;20.35;;;;;;;;;;345124;150;857287;-56
2021/11/01 13:36:27;;;;;;;33.42;21.03;;;;;;;;;;345067;150;859057;-56
2021/11/01 13:37:35;;;;;;;30.01;19.79;;;;;;;;;;344615;153;859509;-57
2021/11/01 13:38:35;;;;;;;29.90;19.52;;;;;;;;;;344257;153;858571;-55
2021/11/01 13:39:37;;;;;;;31.85;17.56;;;;;;;;;;345661;150;858798;-56
2021/11/01 13:40:42;;;;;;;32.74;19.50;;;;;;;;;;344313;152;864972;-55
2021/11/01 13:41:47;;;;;;;33.29;20.81;;;;;;;;;;344163;156;858081;-56
2021/11/01 13:42:53;;;;;;;31.22;19.82;;;;;;;;;;346671;150;858775;-57
2021/11/01 13:44:11;;;;;;;36.32;19.84;;;;;;;;;;345065;150;859075;-55
2021/11/01 13:45:14;;;;;;;31.96;19.94;;;;;;;;;;344925;153;857272;-56
2021/11/01 13:46:19;;;;;;;33.23;20.41;;;;;;;;;;344683;150;859718;-56
2021/11/01 13:47:21;;;;;;;31.88;19.52;;;;;;;;;;345080;150;857709;-58
2021/11/01 13:48:30;;;;;;;30.64;19.37;;;;;;;;;;341450;155;858242;-57
2021/11/01 13:49:32;;;;;;;30.78;19.06;;;;;;;;;;340897;156;857941;-56
2021/11/01 13:50:35;;;;;;;34.43;20.49;;;;;;;;;;345241;150;857769;-56
2021/11/01 13:51:37;;;;;;;35.11;18.68;;;;;;;;;;346308;152;864994;-54
2021/11/01 13:52:42;;;;;;;31.90;19.31;;;;;;;;;;346808;153;857714;-55
2021/11/01 13:53:59;;;;;;;33.55;20.01;;;;;;;;;;345649;150;865304;-56
2021/11/01 13:55:00;;;;;;;;;;;;;;;;;;347758;153;856719;-57
2021/11/01 13:56:14;;;;;;;29.85;18.64;;;;;;;;;;344546;153;857800;-55
2021/11/01 13:57:06;;;;;;;42.24;20.23;;;;;;;;;;343034;154;857090;-55
2021/11/01 13:59:35;;;;;;;32.86;19.72;;;;;;;;;;345283;154;857693;-57
2021/11/01 14:02:02;;;;;;;31.62;19.03;;;;;;;;;;343899;151;864785;-56
2021/11/01 14:03:11;;;;;;;30.86;19.65;;;;;;;;;;342254;154;859136;-56
2021/11/01 14:18:17;;;;;;;43.61;19.90;;;;;;;;;;343530;154;856132;-56
2021/11/01 14:20:27;;;;;;;38.94;18.44;;;;;;;;;;344199;151;859036;-56
2021/11/01 14:28:02;;;;;;;31.92;19.40;;;;;;;;;;343003;153;859330;-56
2021/11/01 14:31:38;;;;;;;29.98;19.27;;;;;;;;;;343398;151;859317;-56
2021/11/01 14:35:28;;;;;;;31.18;18.96;;;;;;;;;;343436;151;859878;-57
2021/11/01 14:55:20;;;;;;;33.90;20.22;;;;;;;;;;345091;154;864831;-55
2021/11/01 14:59:47;;;;;;;35.68;22.11;;;;;;;;;;337751;158;866193;-55
2021/11/01 15:09:22;;;;;;;32.79;20.78;;;;;;;;;;316448;167;857398;-56
2021/11/01 15:13:00;;;;;;;39.05;21.79;;;;;;;;;;319056;167;860837;-54
2021/11/01 15:18:44;;;;;;;45.41;25.59;;;;;;;;;;329309;159;866407;-54
2021/11/01 15:19:52;;;;;;;48.63;24.91;;;;;;;;;;329636;161;860648;-57
2021/11/01 15:23:22;;;;;;;51.33;26.28;;;;;;;;;;330458;161;859098;-55
2021/11/01 15:24:45;;;;;;;50.40;27.92;;;;;;;;;;330952;159;865814;-55
2021/11/01 15:27:02;;;;;;;49.47;25.73;;;;;;;;;;329438;161;857276;-55
2021/11/01 15:32:22;;;;;;;44.90;24.64;;;;;;;;;;330243;161;858649;-55
2021/11/01 15:37:26;;;;;;;46.05;25.04;;;;;;;;;;328220;160;860331;-55
2021/11/01 15:38:28;;;;;;;44.20;23.18;;;;;;;;;;335196;151;856278;-55
2021/11/01 16:18:09;;;;;;;44.73;22.53;;;;;;;;;;347384;153;864279;-59
2021/11/01 16:19:09;;;;;;;44.41;23.25;;;;;;;;;;346920;153;858729;-60
2021/11/01 16:20:11;;;;;;;41.29;22.83;;;;;;;;;;347319;153;858639;-58
2021/11/01 16:21:13;;;;;;;34.98;21.07;;;;;;;;;;347968;151;857327;-55
2021/11/01 16:22:17;;;;;;;35.19;22.72;;;;;;;;;;352866;151;857280;-56
2021/11/01 16:23:37;;;;;;;38.64;21.71;;;;;;;;;;348560;152;857735;-58
2021/11/01 16:24:39;;;;;;;40.26;22.26;;;;;;;;;;345775;154;865852;-57
2021/11/01 16:25:40;;;;;;;37.59;21.13;;;;;;;;;;346951;153;865791;-58
2021/11/01 16:26:42;;;;;;;36.66;22.72;;;;;;;;;;347528;151;864984;-58
2021/11/01 16:27:48;;;;;;;38.07;21.81;;;;;;;;;;342425;154;864788;-58
2021/11/01 16:28:50;;;;;;;35.49;22.17;;;;;;;;;;341551;151;857714;-59
2021/11/01 16:32:05;;;;;;;37.41;21.85;;;;;;;;;;331828;159;857040;-58
2021/11/01 16:33:06;;;;;;;36.50;22.52;;;;;;;;;;343200;151;856333;-58
2021/11/01 16:34:14;;;;;;;32.05;20.34;;;;;;;;;;347587;151;857235;-60
2021/11/01 16:35:16;;;;;;;36.15;22.20;;;;;;;;;;348365;151;858771;-61
2021/11/01 16:36:29;;;;;;;36.91;22.05;;;;;;;;;;347018;151;866642;-59
2021/11/01 16:37:46;;;;;;;35.83;21.50;;;;;;;;;;345862;153;858177;-59
2021/11/01 16:38:51;;;;;;;35.13;21.48;;;;;;;;;;340988;156;857779;-57
2021/11/01 16:39:51;;;;;;;32.90;21.11;;;;;;;;;;342232;154;859596;-57
2021/11/01 16:40:53;;;;;;;31.68;20.44;;;;;;;;;;348077;152;857196;-59
2021/11/01 16:41:57;;;;;;;32.10;20.37;;;;;;;;;;345168;152;857874;-58
2021/11/01 16:42:59;;;;;;;28.70;19.59;;;;;;;;;;346749;153;858406;-58
2021/11/01 16:44:13;;;;;;;30.52;19.97;;;;;;;;;;346628;152;864118;-58
2021/11/01 16:45:15;;;;;;;33.42;20.31;;;;;;;;;;345434;152;860140;-57
2021/11/01 16:46:14;;;;;;;28.71;17.67;;;;;;;;;;348537;152;857734;-57
2021/11/01 16:47:17;;;;;;;29.89;18.66;;;;;;;;;;347194;152;857941;-59
2021/11/01 16:48:19;;;;;;;31.84;19.88;;;;;;;;;;344009;152;866641;-58
2021/11/01 16:49:21;;;;;;;31.31;19.73;;;;;;;;;;347754;152;858882;-58
2021/11/01 16:50:23;;;;;;;29.09;19.04;;;;;;;;;;347213;152;858777;-57
2021/11/01 16:51:27;;;;;;;29.88;16.85;;;;;;;;;;345416;152;859007;-56
2021/11/01 16:52:29;;;;;;;31.83;20.26;;;;;;;;;;347815;152;857320;-56
2021/11/01 16:53:32;;;;;;;31.28;19.65;;;;;;;;;;348500;152;860586;-56
2021/11/01 16:54:36;;;;;;;30.84;18.49;;;;;;;;;;343669;153;865473;-54
2021/11/01 16:55:39;;;;;;;24.54;16.11;;;;;;;;;;345993;152;865027;-56
2021/11/01 16:57:58;;;;;;;30.63;20.03;;;;;;;;;;345536;152;857212;-56
2021/11/01 16:59:05;;;;;;;29.56;19.42;;;;;;;;;;346079;152;857323;-56
2021/11/01 17:01:11;;;;;;;35.88;19.34;;;;;;;;;;349449;152;857335;-57
2021/11/01 17:03:33;;;;;;;31.89;20.08;;;;;;;;;;346471;152;859428;-57
2021/11/01 17:04:31;;;;;;;30.18;19.36;;;;;;;;;;347210;153;866645;-57
2021/11/01 17:05:42;;;;;;;33.47;20.66;;;;;;;;;;345710;154;857728;-57
2021/11/01 17:09:08;;;;;;;32.74;19.09;;;;;;;;;;348746;151;860878;-57
2021/11/01 17:24:52;;;;;;;28.67;15.63;;;;;;;;;;348815;151;865323;-56
2021/11/01 17:26:03;;;;;;;31.09;19.19;;;;;;;;;;347911;151;857703;-56
2021/11/01 17:28:24;;;;;;;37.88;22.13;;;;;;;;;;350180;152;859080;-57
2021/11/01 17:29:38;;;;;;;33.49;21.23;;;;;;;;;;348441;152;857286;-57
2021/11/01 17:30:50;;;;;;;32.04;19.19;;;;;;;;;;347008;151;857574;-57
2021/11/01 17:37:01;;;;;;;43.74;22.33;;;;;;;;;;327946;161;865900;-58
2021/11/01 18:39:27;;;;;;;46.09;25.61;;;;;;;;;;334162;157;857449;-57
2021/11/01 18:40:44;;;;;;;42.22;24.66;;;;;;;;;;328126;158;857328;-57
2021/11/01 18:41:47;;;;;;;39.86;25.07;;;;;;;;;;337038;156;857703;-57
2021/11/01 18:44:32;;;;;;;42.63;24.79;;;;;;;;;;330733;158;857330;-57
2021/11/01 18:45:40;;;;;;;40.89;24.66;;;;;;;;;;341646;151;857257;-58
2021/11/01 18:46:42;;;;;;;43.06;25.25;;;;;;;;;;345880;151;857214;-57
2021/11/01 18:51:39;;;;;;;41.68;24.17;;;;;;;;;;341322;155;860009;-58
2021/11/01 18:52:40;;;;;;;40.75;24.83;;;;;;;;;;338701;156;858451;-58
2021/11/01 18:53:42;;;;;;;50.74;26.70;;;;;;;;;;338770;157;857566;-59
2021/11/01 18:54:44;;;;;;;40.75;24.82;;;;;;;;;;336488;158;865033;-58
2021/11/01 18:55:50;;;;;;;41.85;25.83;;;;;;;;;;336467;158;857677;-58
2021/11/01 18:56:54;;;;;;;44.61;25.96;;;;;;;;;;334618;158;857717;-58
2021/11/01 18:57:55;;;;;;;39.87;25.02;;;;;;;;;;335529;157;857815;-58
2021/11/01 18:58:57;;;;;;;45.38;24.92;;;;;;;;;;336979;157;866048;-58
2021/11/01 19:00:03;;;;;;;42.21;25.84;;;;;;;;;;335778;157;865072;-57
2021/11/01 19:01:05;;;;;;;45.88;25.89;;;;;;;;;;334771;157;857824;-58
2021/11/01 19:03:28;;;;;;;43.14;24.21;;;;;;;;;;341831;155;857384;-58
2021/11/01 19:04:36;;;;;;;36.63;24.06;;;;;;;;;;338516;158;859470;-59
2021/11/01 19:05:53;;;;;;;39.33;22.93;;;;;;;;;;338259;156;859063;-58
2021/11/01 19:06:53;;;;;;;44.68;25.14;;;;;;;;;;336344;158;865856;-59
2021/11/01 19:09:21;;;;;;;41.63;24.31;;;;;;;;;;338788;157;857843;-58
2021/11/01 19:13:05;;;;;;;36.19;23.26;;;;;;;;;;339404;157;857603;-58
2021/11/01 19:15:33;;;;;;;45.47;24.80;;;;;;;;;;339691;155;857743;-57
2021/11/01 19:17:16;;;;;;;40.16;23.05;;;;;;;;;;335160;158;857679;-57
2021/11/01 20:04:09;;;;;;;50.17;25.47;;;;;;;;;;330334;161;859481;-58
2021/11/01 20:06:01;;;;;;;48.73;28.03;;;;;;;;;;322835;163;857890;-56
2021/11/01 20:07:23;;;;;;;52.23;29.42;;;;;;;;;;335972;158;858576;-57
2021/11/01 20:09:16;;;;;;;45.75;27.11;;;;;;;;;;338355;155;857316;-59
2021/11/01 20:13:11;;;;;;;51.66;28.46;;;;;;;;;;337895;156;859485;-56
2021/11/01 20:14:22;;;;;;;50.62;27.99;;;;;;;;;;336545;157;857533;-56
2021/11/01 20:15:33;;;;;;;53.11;30.24;;;;;;;;;;337060;158;858807;-57
2021/11/01 21:25:02;;;;;;;56.28;32.47;;;;;;;;;;333986;157;859375;-58
2021/11/01 21:25:54;;;;;;;55.92;30.95;;;;;;;;;;335250;156;857729;-57
2021/11/01 21:27:00;;;;;;;55.52;31.19;;;;;;;;;;336369;156;857350;-57
2021/11/01 21:28:02;;;;;;;59.26;32.88;;;;;;;;;;334052;158;859510;-57
2021/11/01 21:29:03;;;;;;;54.60;32.55;;;;;;;;;;338514;156;858165;-57
2021/11/01 21:30:05;;;;;;;60.55;32.34;;;;;;;;;;338674;156;864855;-57
2021/11/01 21:31:07;;;;;;;60.21;32.51;;;;;;;;;;337242;158;865013;-57
2021/11/01 21:32:09;;;;;;;55.49;31.79;;;;;;;;;;338291;156;858353;-57
2021/11/01 21:33:14;;;;;;;54.41;33.16;;;;;;;;;;339705;156;857517;-57
2021/11/01 21:34:16;;;;;;;56.63;31.92;;;;;;;;;;338814;156;857712;-56
2021/11/01 21:35:19;;;;;;;60.94;34.47;;;;;;;;;;335549;156;859048;-57
2021/11/01 21:36:24;;;;;;;62.82;33.83;;;;;;;;;;337454;157;858553;-57
2021/11/01 21:37:26;;;;;;;63.73;34.93;;;;;;;;;;338195;158;857327;-57
2021/11/01 21:38:29;;;;;;;57.89;32.59;;;;;;;;;;334153;157;857664;-58
2021/11/01 21:39:31;;;;;;;62.34;33.98;;;;;;;;;;336826;156;858354;-58
2021/11/01 21:40:32;;;;;;;61.61;33.88;;;;;;;;;;338454;158;865314;-57
2021/11/01 21:41:34;;;;;;;66.89;34.98;;;;;;;;;;338033;158;857138;-57
2021/11/01 21:42:36;;;;;;;60.15;33.22;;;;;;;;;;338864;157;865884;-57
2021/11/01 21:43:37;;;;;;;61.82;33.93;;;;;;;;;;338379;156;857744;-56
